fecha-hora | temperatura | viento dirección-velocidad-rachas | humedad | presión

  • 03-04-2020 21:00:00 | 11.00°C | Este-14.00 km/h - 27.00 km/h | 74.00% | 1012.00 hPa
  • 03-04-2020 20:00:00 | 12.70°C | Este-16.00 km/h - 30.00 km/h | 64.00% | 1012.30 hPa
  • 03-04-2020 19:00:00 | 13.80°C | Este-16.00 km/h - 31.00 km/h | 59.00% | 1012.30 hPa
  • 03-04-2020 18:00:00 | 14.40°C | Este-16.00 km/h - 0.00 km/h | 56.00% | 1012.50 hPa
  • 03-04-2020 17:00:00 | 14.30°C | Este-18.00 km/h - 33.00 km/h | 54.00% | 1012.90 hPa
  • 03-04-2020 16:00:00 | 14.20°C | Este-18.00 km/h - 33.00 km/h | 56.00% | 1013.40 hPa
  • 03-04-2020 15:00:00 | 14.90°C | Este-13.00 km/h - 0.00 km/h | 57.00% | 1013.90 hPa
  • 03-04-2020 14:00:00 | 0.00°C | 0-0.00 km/h - 0.00 km/h | 0.00% | 0.00 hPa
  • 03-04-2020 13:00:00 | 14.10°C | Este-14.00 km/h - 27.00 km/h | 58.00% | 1015.60 hPa
  • 03-04-2020 12:00:00 | 12.90°C | Este-13.00 km/h - 0.00 km/h | 60.00% | 1016.00 hPa
  • 03-04-2020 11:00:00 | 12.40°C | Este-10.00 km/h - 0.00 km/h | 65.00% | 1016.00 hPa
  • 03-04-2020 10:00:00 | 0.00°C | 0-0.00 km/h - 0.00 km/h | 0.00% | 0.00 hPa
  • 03-04-2020 09:00:00 | 4.60°C | Sudeste-5.00 km/h - 7.00 km/h | 98.00% | 1016.00 hPa
  • 03-04-2020 08:00:00 | 4.50°C | Este-4.00 km/h - 7.00 km/h | 96.00% | 1015.60 hPa
  • 03-04-2020 07:00:00 | 5.60°C | Sudeste-4.00 km/h - 0.00 km/h | 94.00% | 1015.50 hPa
  • 03-04-2020 06:00:00 | 0.00°C | 0-0.00 km/h - 0.00 km/h | 0.00% | 0.00 hPa
  • 03-04-2020 05:00:00 | 5.70°C | Sur-4.00 km/h - 6.00 km/h | 91.00% | 1016.00 hPa
  • 03-04-2020 04:00:00 | 7.60°C | Sudeste-4.00 km/h - 0.00 km/h | 86.00% | 1016.30 hPa
  • 03-04-2020 03:00:00 | 0.00°C | 0-0.00 km/h - 0.00 km/h | 0.00% | 0.00 hPa
  • 03-04-2020 02:00:00 | 9.70°C | Este-3.00 km/h - 10.00 km/h | 72.00% | 1017.10 hPa
  • 03-04-2020 01:00:00 | 9.80°C | Nordeste-5.00 km/h - 12.00 km/h | 72.00% | 1017.30 hPa
  • 03-04-2020 00:00:00 | 10.20°C | Nordeste-6.00 km/h - 15.00 km/h | 75.00% | 1017.50 hPa
  • 02-04-2020 23:00:00 | 10.40°C | Nordeste-8.00 km/h - 15.00 km/h | 75.00% | 1017.30 hPa
  • 02-04-2020 22:00:00 | 10.50°C | Nordeste-10.00 km/h - 16.00 km/h | 77.00% | 1017.10 hPa
    • Información sobre el estado de las mareas, altura de la marejada, temperatura del agua y otros datos de Gijón en Asturias.

      Surf Gijón